sensor_id;sensor_type;location;lat;lon;timestamp;temperature;humidity
22698;DHT22;11516;51.612;7.510;2022-08-24T00:00:59;21.70;99.90
22698;DHT22;11516;51.612;7.510;2022-08-24T00:03:24;21.70;99.90
22698;DHT22;11516;51.612;7.510;2022-08-24T00:05:51;21.60;99.90
22698;DHT22;11516;51.612;7.510;2022-08-24T00:08:18;21.60;99.90
22698;DHT22;11516;51.612;7.510;2022-08-24T00:10:44;21.60;99.90
22698;DHT22;11516;51.612;7.510;2022-08-24T00:13:10;21.50;99.90
22698;DHT22;11516;51.612;7.510;2022-08-24T00:15:36;21.40;99.90
22698;DHT22;11516;51.612;7.510;2022-08-24T00:18:01;21.50;99.90
22698;DHT22;11516;51.612;7.510;2022-08-24T00:20:27;21.50;99.90
22698;DHT22;11516;51.612;7.510;2022-08-24T00:22:53;21.50;99.90
22698;DHT22;11516;51.612;7.510;2022-08-24T00:25:19;21.40;99.90
22698;DHT22;11516;51.612;7.510;2022-08-24T00:27:45;21.40;99.90
22698;DHT22;11516;51.612;7.510;2022-08-24T00:30:15;21.40;99.90
22698;DHT22;11516;51.612;7.510;2022-08-24T00:32:42;21.40;99.90
22698;DHT22;11516;51.612;7.510;2022-08-24T00:35:08;21.40;99.90
22698;DHT22;11516;51.612;7.510;2022-08-24T00:37:35;21.30;99.90
22698;DHT22;11516;51.612;7.510;2022-08-24T00:40:04;21.40;99.90
22698;DHT22;11516;51.612;7.510;2022-08-24T00:42:31;21.30;99.90
22698;DHT22;11516;51.612;7.510;2022-08-24T00:44:57;21.30;99.90
22698;DHT22;11516;51.612;7.510;2022-08-24T00:47:42;21.30;99.90
22698;DHT22;11516;51.612;7.510;2022-08-24T00:50:23;21.20;99.90
22698;DHT22;11516;51.612;7.510;2022-08-24T00:52:53;21.20;99.90
22698;DHT22;11516;51.612;7.510;2022-08-24T00:55:26;21.10;99.90
22698;DHT22;11516;51.612;7.510;2022-08-24T00:57:57;21.10;99.90
22698;DHT22;11516;51.612;7.510;2022-08-24T01:00:27;21.00;99.90
22698;DHT22;11516;51.612;7.510;2022-08-24T01:02:56;20.90;99.90
22698;DHT22;11516;51.612;7.510;2022-08-24T01:05:24;20.80;99.90
22698;DHT22;11516;51.612;7.510;2022-08-24T01:07:50;20.70;99.90
22698;DHT22;11516;51.612;7.510;2022-08-24T01:10:19;20.80;99.90
22698;DHT22;11516;51.612;7.510;2022-08-24T01:12:48;20.70;99.90
22698;DHT22;11516;51.612;7.510;2022-08-24T01:15:15;20.70;99.90
22698;DHT22;11516;51.612;7.510;2022-08-24T01:17:41;20.80;99.90
22698;DHT22;11516;51.612;7.510;2022-08-24T01:20:26;20.80;99.90
22698;DHT22;11516;51.612;7.510;2022-08-24T01:25:18;20.70;99.90
22698;DHT22;11516;51.612;7.510;2022-08-24T01:27:44;20.70;99.90
22698;DHT22;11516;51.612;7.510;2022-08-24T01:30:13;20.70;99.90
22698;DHT22;11516;51.612;7.510;2022-08-24T01:32:41;20.70;99.90
22698;DHT22;11516;51.612;7.510;2022-08-24T01:35:07;20.60;99.90
22698;DHT22;11516;51.612;7.510;2022-08-24T01:37:34;20.60;99.90
22698;DHT22;11516;51.612;7.510;2022-08-24T01:40:05;20.60;99.90
22698;DHT22;11516;51.612;7.510;2022-08-24T01:42:31;20.60;99.90
22698;DHT22;11516;51.612;7.510;2022-08-24T01:44:59;20.50;99.90
22698;DHT22;11516;51.612;7.510;2022-08-24T01:47:25;20.50;99.90
22698;DHT22;11516;51.612;7.510;2022-08-24T01:49:51;20.50;99.90
22698;DHT22;11516;51.612;7.510;2022-08-24T01:52:20;20.50;99.90
22698;DHT22;11516;51.612;7.510;2022-08-24T01:54:46;20.50;99.90
22698;DHT22;11516;51.612;7.510;2022-08-24T01:57:12;20.50;99.90
22698;DHT22;11516;51.612;7.510;2022-08-24T01:59:38;20.50;99.90
22698;DHT22;11516;51.612;7.510;2022-08-24T02:02:10;20.40;99.90
22698;DHT22;11516;51.612;7.510;2022-08-24T02:04:38;20.50;99.90
22698;DHT22;11516;51.612;7.510;2022-08-24T02:07:03;20.40;99.90
22698;DHT22;11516;51.612;7.510;2022-08-24T02:09:30;20.40;99.90
22698;DHT22;11516;51.612;7.510;2022-08-24T02:11:55;20.30;99.90
22698;DHT22;11516;51.612;7.510;2022-08-24T02:14:21;20.30;99.90
22698;DHT22;11516;51.612;7.510;2022-08-24T02:16:47;20.30;99.90
22698;DHT22;11516;51.612;7.510;2022-08-24T02:19:13;20.20;99.90
22698;DHT22;11516;51.612;7.510;2022-08-24T02:21:39;20.20;99.90
22698;DHT22;11516;51.612;7.510;2022-08-24T02:24:05;20.20;99.90
22698;DHT22;11516;51.612;7.510;2022-08-24T02:26:31;20.20;99.90
22698;DHT22;11516;51.612;7.510;2022-08-24T02:28:57;20.10;99.90
22698;DHT22;11516;51.612;7.510;2022-08-24T02:31:25;20.20;99.90
22698;DHT22;11516;51.612;7.510;2022-08-24T02:33:51;20.10;99.90
22698;DHT22;11516;51.612;7.510;2022-08-24T02:36:17;20.20;99.90
22698;DHT22;11516;51.612;7.510;2022-08-24T02:38:42;20.10;99.90
22698;DHT22;11516;51.612;7.510;2022-08-24T02:41:10;20.10;99.90
22698;DHT22;11516;51.612;7.510;2022-08-24T02:43:41;20.10;99.90
22698;DHT22;11516;51.612;7.510;2022-08-24T02:46:07;20.10;99.90
22698;DHT22;11516;51.612;7.510;2022-08-24T02:48:32;20.10;99.90
22698;DHT22;11516;51.612;7.510;2022-08-24T02:50:59;20.10;99.90
22698;DHT22;11516;51.612;7.510;2022-08-24T02:53:25;20.10;99.90
22698;DHT22;11516;51.612;7.510;2022-08-24T02:55:53;20.00;99.90
22698;DHT22;11516;51.612;7.510;2022-08-24T02:58:19;20.10;99.90
22698;DHT22;11516;51.612;7.510;2022-08-24T03:00:46;20.00;99.90
22698;DHT22;11516;51.612;7.510;2022-08-24T03:03:12;20.10;99.90
22698;DHT22;11516;51.612;7.510;2022-08-24T03:05:38;20.10;99.90
22698;DHT22;11516;51.612;7.510;2022-08-24T03:08:04;19.80;99.90
22698;DHT22;11516;51.612;7.510;2022-08-24T03:10:30;19.90;99.90
22698;DHT22;11516;51.612;7.510;2022-08-24T03:12:56;19.90;99.90
22698;DHT22;11516;51.612;7.510;2022-08-24T03:15:23;19.90;99.90
22698;DHT22;11516;51.612;7.510;2022-08-24T03:17:49;20.00;99.90
22698;DHT22;11516;51.612;7.510;2022-08-24T03:20:18;19.90;99.90
22698;DHT22;11516;51.612;7.510;2022-08-24T03:22:44;19.70;99.90
22698;DHT22;11516;51.612;7.510;2022-08-24T03:25:11;19.70;99.90
22698;DHT22;11516;51.612;7.510;2022-08-24T03:27:37;19.70;99.90
22698;DHT22;11516;51.612;7.510;2022-08-24T03:30:06;19.60;99.90
22698;DHT22;11516;51.612;7.510;2022-08-24T03:32:32;19.60;99.90
22698;DHT22;11516;51.612;7.510;2022-08-24T03:34:58;19.50;99.90
22698;DHT22;11516;51.612;7.510;2022-08-24T03:37:23;19.50;99.90
22698;DHT22;11516;51.612;7.510;2022-08-24T03:39:49;19.50;99.90
22698;DHT22;11516;51.612;7.510;2022-08-24T03:42:16;19.50;99.90
22698;DHT22;11516;51.612;7.510;2022-08-24T03:44:41;19.40;99.90
22698;DHT22;11516;51.612;7.510;2022-08-24T03:47:07;19.40;99.90
22698;DHT22;11516;51.612;7.510;2022-08-24T03:49:37;19.50;99.90
22698;DHT22;11516;51.612;7.510;2022-08-24T03:52:03;19.40;99.90
22698;DHT22;11516;51.612;7.510;2022-08-24T03:54:29;19.40;99.90
22698;DHT22;11516;51.612;7.510;2022-08-24T03:56:55;19.40;99.90
22698;DHT22;11516;51.612;7.510;2022-08-24T03:59:21;19.40;99.90
22698;DHT22;11516;51.612;7.510;2022-08-24T04:01:47;19.40;99.90
22698;DHT22;11516;51.612;7.510;2022-08-24T04:04:12;19.40;99.90
22698;DHT22;11516;51.612;7.510;2022-08-24T04:06:38;19.40;99.90
22698;DHT22;11516;51.612;7.510;2022-08-24T04:09:09;19.40;99.90
22698;DHT22;11516;51.612;7.510;2022-08-24T04:11:34;19.40;99.90
22698;DHT22;11516;51.612;7.510;2022-08-24T04:14:00;19.30;99.90
22698;DHT22;11516;51.612;7.510;2022-08-24T04:16:27;19.40;99.90
22698;DHT22;11516;51.612;7.510;2022-08-24T04:18:55;19.30;99.90
22698;DHT22;11516;51.612;7.510;2022-08-24T04:21:24;19.50;99.90
22698;DHT22;11516;51.612;7.510;2022-08-24T04:23:51;19.40;99.90
22698;DHT22;11516;51.612;7.510;2022-08-24T04:26:18;19.30;99.90
22698;DHT22;11516;51.612;7.510;2022-08-24T04:28:45;19.30;99.90
22698;DHT22;11516;51.612;7.510;2022-08-24T04:31:11;19.30;99.90
22698;DHT22;11516;51.612;7.510;2022-08-24T04:33:38;19.30;99.90
22698;DHT22;11516;51.612;7.510;2022-08-24T04:36:08;19.30;99.90
22698;DHT22;11516;51.612;7.510;2022-08-24T04:38:34;19.30;99.90
22698;DHT22;11516;51.612;7.510;2022-08-24T04:41:06;19.30;99.90
22698;DHT22;11516;51.612;7.510;2022-08-24T04:43:33;19.30;99.90
22698;DHT22;11516;51.612;7.510;2022-08-24T04:45:59;19.30;99.90
22698;DHT22;11516;51.612;7.510;2022-08-24T04:48:25;19.30;99.90
22698;DHT22;11516;51.612;7.510;2022-08-24T04:50:50;19.30;99.90
22698;DHT22;11516;51.612;7.510;2022-08-24T04:53:17;19.30;99.90
22698;DHT22;11516;51.612;7.510;2022-08-24T04:55:45;19.30;99.90
22698;DHT22;11516;51.612;7.510;2022-08-24T04:58:13;19.30;99.90
22698;DHT22;11516;51.612;7.510;2022-08-24T05:00:39;19.30;99.90
22698;DHT22;11516;51.612;7.510;2022-08-24T05:03:05;19.30;99.90
22698;DHT22;11516;51.612;7.510;2022-08-24T05:05:31;19.30;99.90
22698;DHT22;11516;51.612;7.510;2022-08-24T05:07:57;19.30;99.90
22698;DHT22;11516;51.612;7.510;2022-08-24T05:10:22;19.40;99.90
22698;DHT22;11516;51.612;7.510;2022-08-24T05:12:48;19.40;99.90
22698;DHT22;11516;51.612;7.510;2022-08-24T05:15:14;19.50;99.90
22698;DHT22;11516;51.612;7.510;2022-08-24T05:17:41;19.50;99.90
22698;DHT22;11516;51.612;7.510;2022-08-24T05:20:10;19.50;99.90
22698;DHT22;11516;51.612;7.510;2022-08-24T05:22:46;19.50;99.90
22698;DHT22;11516;51.612;7.510;2022-08-24T05:25:12;19.40;99.90
22698;DHT22;11516;51.612;7.510;2022-08-24T05:27:40;19.50;99.90
22698;DHT22;11516;51.612;7.510;2022-08-24T05:30:06;19.60;99.90
22698;DHT22;11516;51.612;7.510;2022-08-24T05:32:31;19.50;99.90
22698;DHT22;11516;51.612;7.510;2022-08-24T05:34:59;19.60;99.90
22698;DHT22;11516;51.612;7.510;2022-08-24T05:37:25;19.60;99.90
22698;DHT22;11516;51.612;7.510;2022-08-24T05:39:51;19.70;99.90
22698;DHT22;11516;51.612;7.510;2022-08-24T05:42:16;19.70;99.90
22698;DHT22;11516;51.612;7.510;2022-08-24T05:44:42;19.70;99.90
22698;DHT22;11516;51.612;7.510;2022-08-24T05:47:07;19.80;99.90
22698;DHT22;11516;51.612;7.510;2022-08-24T05:49:34;19.80;99.90
22698;DHT22;11516;51.612;7.510;2022-08-24T05:52:00;19.90;99.90
22698;DHT22;11516;51.612;7.510;2022-08-24T05:54:32;19.90;99.90
22698;DHT22;11516;51.612;7.510;2022-08-24T05:56:58;19.90;99.90
22698;DHT22;11516;51.612;7.510;2022-08-24T05:59:29;20.00;99.90
22698;DHT22;11516;51.612;7.510;2022-08-24T06:01:54;20.00;99.90
22698;DHT22;11516;51.612;7.510;2022-08-24T06:04:20;20.10;99.90
22698;DHT22;11516;51.612;7.510;2022-08-24T06:06:47;20.20;99.90
22698;DHT22;11516;51.612;7.510;2022-08-24T06:09:12;20.30;99.90
22698;DHT22;11516;51.612;7.510;2022-08-24T06:11:39;20.40;99.90
22698;DHT22;11516;51.612;7.510;2022-08-24T06:14:08;20.60;99.90
22698;DHT22;11516;51.612;7.510;2022-08-24T06:16:36;20.50;99.90
22698;DHT22;11516;51.612;7.510;2022-08-24T06:25:38;20.70;99.90
22698;DHT22;11516;51.612;7.510;2022-08-24T06:28:24;20.70;99.90
22698;DHT22;11516;51.612;7.510;2022-08-24T06:30:49;20.70;99.90
22698;DHT22;11516;51.612;7.510;2022-08-24T06:33:15;20.90;99.90
22698;DHT22;11516;51.612;7.510;2022-08-24T06:35:41;20.90;99.90
22698;DHT22;11516;51.612;7.510;2022-08-24T06:38:06;21.00;99.90
22698;DHT22;11516;51.612;7.510;2022-08-24T06:40:32;21.10;99.90
22698;DHT22;11516;51.612;7.510;2022-08-24T06:43:01;21.20;99.90
22698;DHT22;11516;51.612;7.510;2022-08-24T06:45:28;21.30;99.90
22698;DHT22;11516;51.612;7.510;2022-08-24T06:47:54;21.30;99.90
22698;DHT22;11516;51.612;7.510;2022-08-24T06:50:20;21.40;99.90
22698;DHT22;11516;51.612;7.510;2022-08-24T06:52:46;21.50;99.90
22698;DHT22;11516;51.612;7.510;2022-08-24T06:55:11;21.40;99.90
22698;DHT22;11516;51.612;7.510;2022-08-24T06:57:37;21.40;99.90
22698;DHT22;11516;51.612;7.510;2022-08-24T07:00:03;21.50;99.90
22698;DHT22;11516;51.612;7.510;2022-08-24T07:02:29;21.50;99.90
22698;DHT22;11516;51.612;7.510;2022-08-24T07:04:55;21.60;99.90
22698;DHT22;11516;51.612;7.510;2022-08-24T07:07:21;21.70;99.90
22698;DHT22;11516;51.612;7.510;2022-08-24T07:09:47;21.80;99.90
22698;DHT22;11516;51.612;7.510;2022-08-24T07:12:13;21.90;99.90
22698;DHT22;11516;51.612;7.510;2022-08-24T07:14:38;22.10;99.90
22698;DHT22;11516;51.612;7.510;2022-08-24T07:17:04;22.20;99.90
22698;DHT22;11516;51.612;7.510;2022-08-24T07:19:30;22.20;99.90
22698;DHT22;11516;51.612;7.510;2022-08-24T07:21:56;22.30;99.90
22698;DHT22;11516;51.612;7.510;2022-08-24T07:24:23;22.50;99.90
22698;DHT22;11516;51.612;7.510;2022-08-24T07:26:48;22.50;99.90
22698;DHT22;11516;51.612;7.510;2022-08-24T07:29:14;22.50;99.90
22698;DHT22;11516;51.612;7.510;2022-08-24T07:31:41;22.60;99.90
22698;DHT22;11516;51.612;7.510;2022-08-24T07:34:09;22.70;99.90
22698;DHT22;11516;51.612;7.510;2022-08-24T07:36:36;22.70;99.90
22698;DHT22;11516;51.612;7.510;2022-08-24T07:39:03;22.80;99.90
22698;DHT22;11516;51.612;7.510;2022-08-24T07:41:30;22.80;99.90
22698;DHT22;11516;51.612;7.510;2022-08-24T07:43:58;22.90;99.90
22698;DHT22;11516;51.612;7.510;2022-08-24T07:46:24;23.00;99.90
22698;DHT22;11516;51.612;7.510;2022-08-24T07:48:50;23.10;99.90
22698;DHT22;11516;51.612;7.510;2022-08-24T07:51:17;23.10;99.90
22698;DHT22;11516;51.612;7.510;2022-08-24T07:53:43;23.20;99.90
22698;DHT22;11516;51.612;7.510;2022-08-24T07:56:10;23.20;99.90
22698;DHT22;11516;51.612;7.510;2022-08-24T07:58:36;23.30;99.90
22698;DHT22;11516;51.612;7.510;2022-08-24T08:01:04;23.30;99.90
22698;DHT22;11516;51.612;7.510;2022-08-24T08:03:30;23.40;99.90
22698;DHT22;11516;51.612;7.510;2022-08-24T08:06:00;23.50;99.90
22698;DHT22;11516;51.612;7.510;2022-08-24T08:08:26;23.60;99.90
22698;DHT22;11516;51.612;7.510;2022-08-24T08:10:52;23.70;99.90
22698;DHT22;11516;51.612;7.510;2022-08-24T08:13:18;23.70;99.90
22698;DHT22;11516;51.612;7.510;2022-08-24T08:15:43;23.80;99.90
22698;DHT22;11516;51.612;7.510;2022-08-24T08:18:12;23.80;99.90
22698;DHT22;11516;51.612;7.510;2022-08-24T08:20:40;23.90;99.30
22698;DHT22;11516;51.612;7.510;2022-08-24T08:23:06;23.90;98.80
22698;DHT22;11516;51.612;7.510;2022-08-24T08:25:51;23.90;98.70
22698;DHT22;11516;51.612;7.510;2022-08-24T08:28:19;24.00;98.50
22698;DHT22;11516;51.612;7.510;2022-08-24T08:30:44;24.10;97.00
22698;DHT22;11516;51.612;7.510;2022-08-24T08:33:11;24.10;96.80
22698;DHT22;11516;51.612;7.510;2022-08-24T08:35:37;24.20;95.40
22698;DHT22;11516;51.612;7.510;2022-08-24T08:38:03;24.40;95.40
22698;DHT22;11516;51.612;7.510;2022-08-24T08:40:53;24.50;95.60
22698;DHT22;11516;51.612;7.510;2022-08-24T08:43:44;24.70;95.00
22698;DHT22;11516;51.612;7.510;2022-08-24T08:49:22;24.90;92.80
22698;DHT22;11516;51.612;7.510;2022-08-24T08:52:29;25.10;93.30
22698;DHT22;11516;51.612;7.510;2022-08-24T08:57:48;25.50;92.70
22698;DHT22;11516;51.612;7.510;2022-08-24T09:00:30;25.50;90.00
22698;DHT22;11516;51.612;7.510;2022-08-24T09:09:34;25.50;89.60
22698;DHT22;11516;51.612;7.510;2022-08-24T09:15:09;25.90;87.80
22698;DHT22;11516;51.612;7.510;2022-08-24T09:20:47;26.10;85.70
22698;DHT22;11516;51.612;7.510;2022-08-24T09:28:40;26.60;84.30
22698;DHT22;11516;51.612;7.510;2022-08-24T09:53:29;27.30;78.60
22698;DHT22;11516;51.612;7.510;2022-08-24T10:01:56;27.60;77.40
22698;DHT22;11516;51.612;7.510;2022-08-24T10:05:02;27.60;77.80
22698;DHT22;11516;51.612;7.510;2022-08-24T10:07:45;27.60;77.30
22698;DHT22;11516;51.612;7.510;2022-08-24T10:16:05;27.90;76.80
22698;DHT22;11516;51.612;7.510;2022-08-24T10:19:00;27.90;77.10
22698;DHT22;11516;51.612;7.510;2022-08-24T10:32:38;28.30;74.80
22698;DHT22;11516;51.612;7.510;2022-08-24T10:35:12;28.30;75.40
22698;DHT22;11516;51.612;7.510;2022-08-24T10:40:58;28.40;74.50
22698;DHT22;11516;51.612;7.510;2022-08-24T10:49:20;28.70;72.80
22698;DHT22;11516;51.612;7.510;2022-08-24T10:52:21;28.70;72.10
22698;DHT22;11516;51.612;7.510;2022-08-24T10:54:48;28.80;71.80
22698;DHT22;11516;51.612;7.510;2022-08-24T11:02:36;28.90;71.10
22698;DHT22;11516;51.612;7.510;2022-08-24T11:05:05;29.00;71.20
22698;DHT22;11516;51.612;7.510;2022-08-24T11:07:33;29.10;70.10
22698;DHT22;11516;51.612;7.510;2022-08-24T11:10:06;29.30;69.20
22698;DHT22;11516;51.612;7.510;2022-08-24T11:12:38;29.30;70.00
22698;DHT22;11516;51.612;7.510;2022-08-24T11:15:22;29.40;68.60
22698;DHT22;11516;51.612;7.510;2022-08-24T11:25:34;29.90;67.80
22698;DHT22;11516;51.612;7.510;2022-08-24T11:30:47;31.80;61.20
22698;DHT22;11516;51.612;7.510;2022-08-24T11:33:32;32.80;59.70
22698;DHT22;11516;51.612;7.510;2022-08-24T11:35:59;33.70;57.40
22698;DHT22;11516;51.612;7.510;2022-08-24T11:38:28;34.00;55.30
22698;DHT22;11516;51.612;7.510;2022-08-24T11:41:02;34.50;55.40
22698;DHT22;11516;51.612;7.510;2022-08-24T11:46:31;35.30;53.20
22698;DHT22;11516;51.612;7.510;2022-08-24T11:49:02;35.20;53.00
22698;DHT22;11516;51.612;7.510;2022-08-24T11:54:31;34.90;52.30
22698;DHT22;11516;51.612;7.510;2022-08-24T11:57:07;35.20;52.90
22698;DHT22;11516;51.612;7.510;2022-08-24T12:05:33;35.90;51.00
22698;DHT22;11516;51.612;7.510;2022-08-24T12:16:11;36.70;50.10
22698;DHT22;11516;51.612;7.510;2022-08-24T12:18:50;36.80;49.20
22698;DHT22;11516;51.612;7.510;2022-08-24T12:21:21;36.90;49.20
22698;DHT22;11516;51.612;7.510;2022-08-24T12:23:50;37.10;48.00
22698;DHT22;11516;51.612;7.510;2022-08-24T12:29:07;37.50;47.90
22698;DHT22;11516;51.612;7.510;2022-08-24T12:31:41;36.90;47.20
22698;DHT22;11516;51.612;7.510;2022-08-24T12:42:33;36.30;46.70
22698;DHT22;11516;51.612;7.510;2022-08-24T12:45:10;36.00;47.20
22698;DHT22;11516;51.612;7.510;2022-08-24T12:48:16;36.20;47.90
22698;DHT22;11516;51.612;7.510;2022-08-24T12:53:47;36.30;48.00
22698;DHT22;11516;51.612;7.510;2022-08-24T12:59:19;36.90;46.60
22698;DHT22;11516;51.612;7.510;2022-08-24T13:01:56;37.00;47.10
22698;DHT22;11516;51.612;7.510;2022-08-24T13:04:39;36.60;46.40
22698;DHT22;11516;51.612;7.510;2022-08-24T13:18:25;35.60;48.60
22698;DHT22;11516;51.612;7.510;2022-08-24T13:23:17;35.30;49.00
22698;DHT22;11516;51.612;7.510;2022-08-24T13:31:01;36.20;48.40
22698;DHT22;11516;51.612;7.510;2022-08-24T13:33:40;36.00;47.90
22698;DHT22;11516;51.612;7.510;2022-08-24T13:39:14;35.90;48.40
22698;DHT22;11516;51.612;7.510;2022-08-24T13:44:29;36.30;47.40
22698;DHT22;11516;51.612;7.510;2022-08-24T13:55:41;35.80;47.20
22698;DHT22;11516;51.612;7.510;2022-08-24T14:00:48;35.90;47.00
22698;DHT22;11516;51.612;7.510;2022-08-24T14:05:49;36.10;46.50
22698;DHT22;11516;51.612;7.510;2022-08-24T14:13:51;35.90;46.50
22698;DHT22;11516;51.612;7.510;2022-08-24T14:16:37;35.20;47.40
22698;DHT22;11516;51.612;7.510;2022-08-24T14:25:12;36.30;46.70
22698;DHT22;11516;51.612;7.510;2022-08-24T14:27:49;36.30;45.10
22698;DHT22;11516;51.612;7.510;2022-08-24T14:41:17;36.90;46.10
22698;DHT22;11516;51.612;7.510;2022-08-24T14:49:46;36.80;45.50
22698;DHT22;11516;51.612;7.510;2022-08-24T14:55:11;36.50;47.10
22698;DHT22;11516;51.612;7.510;2022-08-24T14:58:00;36.30;47.30
22698;DHT22;11516;51.612;7.510;2022-08-24T15:03:27;35.60;47.70
22698;DHT22;11516;51.612;7.510;2022-08-24T15:08:38;35.30;47.50
22698;DHT22;11516;51.612;7.510;2022-08-24T15:11:14;35.40;47.70
22698;DHT22;11516;51.612;7.510;2022-08-24T15:14:00;35.30;47.50
22698;DHT22;11516;51.612;7.510;2022-08-24T15:16:45;35.30;48.00
22698;DHT22;11516;51.612;7.510;2022-08-24T15:19:17;35.10;47.50
22698;DHT22;11516;51.612;7.510;2022-08-24T15:24:34;34.50;50.00
22698;DHT22;11516;51.612;7.510;2022-08-24T15:30:05;34.10;50.00
22698;DHT22;11516;51.612;7.510;2022-08-24T15:32:47;33.70;50.30
22698;DHT22;11516;51.612;7.510;2022-08-24T15:37:50;33.90;50.90
22698;DHT22;11516;51.612;7.510;2022-08-24T15:40:26;34.10;50.90
22698;DHT22;11516;51.612;7.510;2022-08-24T15:42:56;34.00;50.40
22698;DHT22;11516;51.612;7.510;2022-08-24T15:45:22;34.00;49.90
22698;DHT22;11516;51.612;7.510;2022-08-24T15:47:48;33.80;50.60
22698;DHT22;11516;51.612;7.510;2022-08-24T15:50:32;33.70;51.60
22698;DHT22;11516;51.612;7.510;2022-08-24T15:53:02;33.60;51.60
22698;DHT22;11516;51.612;7.510;2022-08-24T15:55:30;33.30;51.10
22698;DHT22;11516;51.612;7.510;2022-08-24T15:58:11;33.30;51.40
22698;DHT22;11516;51.612;7.510;2022-08-24T16:00:37;33.10;51.80
22698;DHT22;11516;51.612;7.510;2022-08-24T16:03:42;32.90;52.20
22698;DHT22;11516;51.612;7.510;2022-08-24T16:06:42;33.10;52.30
22698;DHT22;11516;51.612;7.510;2022-08-24T16:09:30;33.10;52.40
22698;DHT22;11516;51.612;7.510;2022-08-24T16:12:03;33.10;51.90
22698;DHT22;11516;51.612;7.510;2022-08-24T16:14:44;32.80;52.30
22698;DHT22;11516;51.612;7.510;2022-08-24T16:17:37;32.60;52.70
22698;DHT22;11516;51.612;7.510;2022-08-24T16:20:07;32.60;52.30
22698;DHT22;11516;51.612;7.510;2022-08-24T16:22:48;32.40;52.60
22698;DHT22;11516;51.612;7.510;2022-08-24T16:25:33;32.40;52.80
22698;DHT22;11516;51.612;7.510;2022-08-24T16:36:00;32.20;52.50
22698;DHT22;11516;51.612;7.510;2022-08-24T16:38:27;32.10;52.90
22698;DHT22;11516;51.612;7.510;2022-08-24T16:40:56;32.00;53.10
22698;DHT22;11516;51.612;7.510;2022-08-24T16:43:22;31.90;53.00
22698;DHT22;11516;51.612;7.510;2022-08-24T16:45:47;31.90;53.40
22698;DHT22;11516;51.612;7.510;2022-08-24T16:48:13;31.70;53.50
22698;DHT22;11516;51.612;7.510;2022-08-24T16:50:39;31.80;53.80
22698;DHT22;11516;51.612;7.510;2022-08-24T16:53:04;31.60;53.50
22698;DHT22;11516;51.612;7.510;2022-08-24T16:55:30;31.60;53.80
22698;DHT22;11516;51.612;7.510;2022-08-24T16:57:56;31.60;53.60
22698;DHT22;11516;51.612;7.510;2022-08-24T17:00:21;31.40;53.60
22698;DHT22;11516;51.612;7.510;2022-08-24T17:02:48;31.30;54.20
22698;DHT22;11516;51.612;7.510;2022-08-24T17:05:15;31.30;54.50
22698;DHT22;11516;51.612;7.510;2022-08-24T17:07:41;31.20;54.30
22698;DHT22;11516;51.612;7.510;2022-08-24T17:10:09;31.10;54.90
22698;DHT22;11516;51.612;7.510;2022-08-24T17:12:36;30.90;55.30
22698;DHT22;11516;51.612;7.510;2022-08-24T17:15:07;30.80;55.40
22698;DHT22;11516;51.612;7.510;2022-08-24T17:17:33;30.80;55.40
22698;DHT22;11516;51.612;7.510;2022-08-24T17:20:00;30.70;55.50
22698;DHT22;11516;51.612;7.510;2022-08-24T17:22:26;30.70;55.90
22698;DHT22;11516;51.612;7.510;2022-08-24T17:24:52;30.60;55.70
22698;DHT22;11516;51.612;7.510;2022-08-24T17:27:19;30.60;55.90
22698;DHT22;11516;51.612;7.510;2022-08-24T17:29:45;30.60;56.60
22698;DHT22;11516;51.612;7.510;2022-08-24T17:32:12;30.60;56.00
22698;DHT22;11516;51.612;7.510;2022-08-24T17:34:38;30.60;55.80
22698;DHT22;11516;51.612;7.510;2022-08-24T17:37:03;30.50;56.30
22698;DHT22;11516;51.612;7.510;2022-08-24T17:39:29;30.50;56.40
22698;DHT22;11516;51.612;7.510;2022-08-24T17:41:56;30.50;56.40
22698;DHT22;11516;51.612;7.510;2022-08-24T17:44:26;30.40;56.70
22698;DHT22;11516;51.612;7.510;2022-08-24T17:46:54;30.30;56.80
22698;DHT22;11516;51.612;7.510;2022-08-24T17:49:22;30.20;56.70
22698;DHT22;11516;51.612;7.510;2022-08-24T17:51:48;30.20;57.40
22698;DHT22;11516;51.612;7.510;2022-08-24T17:54:14;30.10;57.70
22698;DHT22;11516;51.612;7.510;2022-08-24T17:56:40;30.00;57.70
22698;DHT22;11516;51.612;7.510;2022-08-24T17:59:07;29.90;57.90
22698;DHT22;11516;51.612;7.510;2022-08-24T18:01:47;29.80;58.00
22698;DHT22;11516;51.612;7.510;2022-08-24T18:04:15;29.80;58.30
22698;DHT22;11516;51.612;7.510;2022-08-24T18:06:41;29.70;58.10
22698;DHT22;11516;51.612;7.510;2022-08-24T18:09:12;29.70;58.10
22698;DHT22;11516;51.612;7.510;2022-08-24T18:11:39;29.60;58.70
22698;DHT22;11516;51.612;7.510;2022-08-24T18:14:05;29.50;58.90
22698;DHT22;11516;51.612;7.510;2022-08-24T18:16:30;29.40;59.10
22698;DHT22;11516;51.612;7.510;2022-08-24T18:18:56;29.40;58.70
22698;DHT22;11516;51.612;7.510;2022-08-24T18:21:22;29.40;59.00
22698;DHT22;11516;51.612;7.510;2022-08-24T18:23:49;29.30;59.70
22698;DHT22;11516;51.612;7.510;2022-08-24T18:26:28;29.20;60.20
22698;DHT22;11516;51.612;7.510;2022-08-24T18:28:56;29.00;61.00
22698;DHT22;11516;51.612;7.510;2022-08-24T18:31:24;28.90;60.40
22698;DHT22;11516;51.612;7.510;2022-08-24T18:33:50;28.80;60.90
22698;DHT22;11516;51.612;7.510;2022-08-24T18:36:16;28.70;62.30
22698;DHT22;11516;51.612;7.510;2022-08-24T18:38:41;28.50;62.80
22698;DHT22;11516;51.612;7.510;2022-08-24T18:41:08;28.30;63.50
22698;DHT22;11516;51.612;7.510;2022-08-24T18:43:34;28.20;63.70
22698;DHT22;11516;51.612;7.510;2022-08-24T18:46:00;28.10;64.20
22698;DHT22;11516;51.612;7.510;2022-08-24T18:48:26;28.00;64.50
22698;DHT22;11516;51.612;7.510;2022-08-24T18:50:51;27.80;65.00
22698;DHT22;11516;51.612;7.510;2022-08-24T18:53:18;27.90;64.90
22698;DHT22;11516;51.612;7.510;2022-08-24T18:55:44;27.80;66.30
22698;DHT22;11516;51.612;7.510;2022-08-24T18:58:11;27.80;64.50
22698;DHT22;11516;51.612;7.510;2022-08-24T19:00:38;27.80;64.30
22698;DHT22;11516;51.612;7.510;2022-08-24T19:03:06;27.80;63.80
22698;DHT22;11516;51.612;7.510;2022-08-24T19:05:32;27.90;63.70
22698;DHT22;11516;51.612;7.510;2022-08-24T19:07:57;27.80;64.30
22698;DHT22;11516;51.612;7.510;2022-08-24T19:10:25;27.80;64.50
22698;DHT22;11516;51.612;7.510;2022-08-24T19:12:59;27.70;64.80
22698;DHT22;11516;51.612;7.510;2022-08-24T19:15:26;27.70;64.70
22698;DHT22;11516;51.612;7.510;2022-08-24T19:17:51;27.50;64.90
22698;DHT22;11516;51.612;7.510;2022-08-24T19:20:18;27.50;64.90
22698;DHT22;11516;51.612;7.510;2022-08-24T19:22:44;27.40;65.30
22698;DHT22;11516;51.612;7.510;2022-08-24T19:25:24;27.40;64.90
22698;DHT22;11516;51.612;7.510;2022-08-24T19:27:51;27.40;66.20
22698;DHT22;11516;51.612;7.510;2022-08-24T19:30:19;27.20;66.30
22698;DHT22;11516;51.612;7.510;2022-08-24T19:32:45;27.10;67.30
22698;DHT22;11516;51.612;7.510;2022-08-24T19:35:11;27.00;68.00